Time;durP1;ratioP1;P1;durP2;ratioP2;P2;SDS_P1;SDS_P2;PMS_P1;PMS_P2;Temp;Humidity;BMP_temperature;BMP_pressure;BME280_temperature;BME280_humidity;BME280_pressure;Samples;Min_cycle;Max_cycle;Signal;HPM_P1;HPM_P2
2022/01/06 00:00:03;;;;;;;13.50;5.70;;;4.00;99.90;;;;;;4999016;28;20193;-84
2022/01/06 00:02:29;;;;;;;17.20;7.20;;;4.10;99.90;;;;;;4999559;28;20206;-84
2022/01/06 00:04:55;;;;;;;11.50;5.40;;;4.10;99.90;;;;;;4999515;28;20440;-84
2022/01/06 00:07:20;;;;;;;9.40;5.17;;;4.10;99.90;;;;;;4999330;28;20420;-83
2022/01/06 00:09:48;;;;;;;16.47;5.33;;;4.10;99.90;;;;;;4981728;28;20183;-84
2022/01/06 00:12:16;;;;;;;10.40;5.23;;;4.10;99.90;;;;;;4981209;28;20273;-84
2022/01/06 00:17:24;;;;;;;11.23;4.57;;;4.10;99.90;;;;;;4998371;28;20934;-84
2022/01/06 00:25:18;;;;;;;17.40;4.77;;;4.10;99.90;;;;;;4998190;28;20448;-84
2022/01/06 00:27:44;;;;;;;10.80;5.03;;;4.00;99.90;;;;;;4980252;28;20414;-83
2022/01/06 00:30:10;;;;;;;10.43;5.70;;;4.00;99.90;;;;;;4997663;28;20225;-84
2022/01/06 00:32:35;;;;;;;9.40;4.40;;;4.00;99.90;;;;;;4997979;28;20171;-84
2022/01/06 00:35:01;;;;;;;6.40;4.70;;;4.00;99.90;;;;;;5012538;23;20500;-84
2022/01/06 00:37:27;;;;;;;7.43;3.97;;;4.00;99.90;;;;;;4998623;28;20181;-85
2022/01/06 00:39:53;;;;;;;12.50;5.03;;;4.00;99.90;;;;;;5016713;28;20181;-83
2022/01/06 00:42:18;;;;;;;9.07;4.77;;;4.00;99.90;;;;;;5005945;28;20757;-84
2022/01/06 00:44:44;;;;;;;11.63;3.80;;;4.00;99.90;;;;;;4979545;28;20271;-82
2022/01/06 00:47:09;;;;;;;15.00;4.00;;;4.00;99.90;;;;;;5004602;28;20190;-85
2022/01/06 00:49:35;;;;;;;9.97;4.03;;;4.00;99.90;;;;;;4998447;28;20173;-84
2022/01/06 00:52:01;;;;;;;12.43;3.87;;;4.00;99.90;;;;;;4998282;28;20221;-85
2022/01/06 00:54:26;;;;;;;12.60;4.00;;;4.00;99.90;;;;;;4998709;28;20185;-84
2022/01/06 00:56:52;;;;;;;6.90;3.43;;;4.00;99.90;;;;;;4998454;28;20177;-83
2022/01/06 00:59:18;;;;;;;9.20;3.27;;;3.90;99.90;;;;;;4998384;28;20560;-83
2022/01/06 01:01:43;;;;;;;8.80;3.77;;;3.90;99.90;;;;;;4997184;28;20186;-84
2022/01/06 01:04:09;;;;;;;21.03;4.50;;;3.90;99.90;;;;;;4997279;28;20183;-82
2022/01/06 01:06:35;;;;;;;10.40;3.37;;;3.90;99.90;;;;;;4997802;28;20210;-82
2022/01/06 01:09:01;;;;;;;9.93;3.30;;;3.90;99.90;;;;;;5018880;28;20183;-82
2022/01/06 01:11:27;;;;;;;14.20;3.50;;;3.90;99.90;;;;;;5000868;28;20233;-84
2022/01/06 01:13:56;;;;;;;13.93;3.50;;;3.90;99.90;;;;;;5000729;28;20185;-83
2022/01/06 01:16:30;;;;;;;7.40;3.23;;;4.00;99.90;;;;;;5017908;28;20954;-84
2022/01/06 01:18:57;;;;;;;9.63;2.80;;;4.00;99.90;;;;;;5000438;28;20413;-84
2022/01/06 01:21:27;;;;;;;13.93;2.90;;;4.00;99.90;;;;;;5000379;28;20428;-84
2022/01/06 01:23:58;;;;;;;7.83;3.53;;;4.00;99.90;;;;;;5018141;28;20404;-84
2022/01/06 01:26:24;;;;;;;5.33;3.30;;;4.00;99.90;;;;;;5000238;28;20452;-82
2022/01/06 01:28:51;;;;;;;10.30;2.57;;;4.00;99.90;;;;;;5016681;28;20424;-83
2022/01/06 01:33:44;;;;;;;10.73;3.27;;;4.00;99.90;;;;;;5018129;28;20511;-82
2022/01/06 01:36:11;;;;;;;9.63;2.70;;;4.00;99.90;;;;;;5000059;28;20526;-84
2022/01/06 01:38:37;;;;;;;13.00;3.53;;;4.00;99.90;;;;;;5000210;28;20418;-83
2022/01/06 01:41:04;;;;;;;7.50;2.80;;;4.00;99.90;;;;;;5000278;28;20420;-84
2022/01/06 01:43:31;;;;;;;10.40;2.90;;;4.00;99.90;;;;;;5015993;28;20440;-81
2022/01/06 01:45:58;;;;;;;7.70;2.90;;;4.00;99.90;;;;;;5017634;28;20574;-82
2022/01/06 01:48:34;;;;;;;8.00;2.40;;;4.00;99.90;;;;;;4999796;28;20802;-82
2022/01/06 01:51:00;;;;;;;17.83;3.47;;;4.00;99.90;;;;;;4999932;28;20907;-81
2022/01/06 01:53:25;;;;;;;12.03;3.50;;;3.90;99.90;;;;;;4999803;28;20440;-83
2022/01/06 01:55:51;;;;;;;8.23;2.80;;;3.90;99.90;;;;;;4999719;28;20202;-84
2022/01/06 01:58:18;;;;;;;6.83;2.30;;;3.90;99.90;;;;;;4999128;28;20182;-83
2022/01/06 02:00:43;;;;;;;9.07;3.33;;;3.90;99.90;;;;;;5017591;28;20189;-83
2022/01/06 02:03:09;;;;;;;7.10;2.30;;;4.00;99.90;;;;;;4999622;28;20471;-83
2022/01/06 02:05:35;;;;;;;6.73;3.07;;;3.90;99.90;;;;;;4999435;28;20207;-82
2022/01/06 02:08:01;;;;;;;7.70;2.67;;;3.90;99.90;;;;;;4999385;28;20562;-81
2022/01/06 02:10:29;;;;;;;5.07;2.20;;;3.90;99.90;;;;;;5015933;28;20297;-82
2022/01/06 02:12:56;;;;;;;8.20;2.57;;;3.80;99.90;;;;;;5015681;28;20412;-81
2022/01/06 02:15:22;;;;;;;6.33;2.50;;;3.80;99.90;;;;;;5015368;28;20816;-83
2022/01/06 02:17:48;;;;;;;11.07;2.90;;;3.80;99.90;;;;;;5016708;28;20412;-83
2022/01/06 02:20:17;;;;;;;6.67;3.67;;;3.80;99.90;;;;;;5000205;28;20466;-84
2022/01/06 02:22:43;;;;;;;6.60;2.60;;;3.80;99.90;;;;;;5017514;28;20416;-84
2022/01/06 02:25:21;;;;;;;12.23;2.97;;;3.80;99.90;;;;;;5000211;28;20636;-83
2022/01/06 02:27:51;;;;;;;5.03;2.90;;;3.80;99.90;;;;;;5015686;28;20420;-86
2022/01/06 02:30:18;;;;;;;8.13;3.03;;;3.80;99.90;;;;;;5017415;28;20451;-83
2022/01/06 02:32:44;;;;;;;10.80;3.23;;;3.90;99.90;;;;;;4999858;28;20455;-84
2022/01/06 02:35:13;;;;;;;9.07;2.80;;;3.90;99.90;;;;;;4999436;28;20467;-82
2022/01/06 02:37:39;;;;;;;5.50;2.57;;;3.90;99.90;;;;;;4999995;28;20439;-83
2022/01/06 02:40:10;;;;;;;9.37;3.23;;;3.80;99.90;;;;;;5017369;28;20417;-84
2022/01/06 02:42:39;;;;;;;6.67;3.07;;;3.80;99.90;;;;;;4999750;28;20853;-82
2022/01/06 02:45:06;;;;;;;6.23;2.87;;;3.90;99.90;;;;;;4999673;28;20467;-82
2022/01/06 02:47:32;;;;;;;7.33;3.07;;;3.90;99.90;;;;;;5016638;28;20420;-84
2022/01/06 02:49:57;;;;;;;5.70;2.13;;;3.80;99.90;;;;;;4999031;28;20417;-84
2022/01/06 02:52:23;;;;;;;7.17;3.07;;;3.80;99.90;;;;;;5016806;28;20425;-84
2022/01/06 02:54:49;;;;;;;13.27;2.93;;;3.90;99.90;;;;;;4998433;28;20511;-84
2022/01/06 02:57:14;;;;;;;7.03;3.47;;;4.00;99.90;;;;;;4998797;28;20177;-83
2022/01/06 02:59:40;;;;;;;10.60;3.90;;;4.00;99.90;;;;;;5016881;28;20604;-82
2022/01/06 03:02:06;;;;;;;11.70;2.70;;;4.00;99.90;;;;;;4999069;28;20193;-82
2022/01/06 03:04:31;;;;;;;10.67;2.93;;;4.00;99.90;;;;;;4998760;28;20193;-84
2022/01/06 03:06:57;;;;;;;9.80;4.17;;;4.00;99.90;;;;;;4998918;28;20212;-83
2022/01/06 03:09:35;;;;;;;11.47;2.80;;;4.00;99.90;;;;;;4998942;28;20644;-82
2022/01/06 03:12:01;;;;;;;16.33;3.73;;;4.10;99.90;;;;;;4998948;28;20212;-83
2022/01/06 03:14:26;;;;;;;12.40;2.73;;;4.10;99.90;;;;;;4998827;28;20423;-83
2022/01/06 03:16:52;;;;;;;6.10;2.53;;;4.10;99.90;;;;;;4998670;28;20421;-82
2022/01/06 03:19:17;;;;;;;9.43;2.60;;;4.20;99.90;;;;;;4998618;28;20223;-85
2022/01/06 03:21:43;;;;;;;10.90;2.70;;;4.30;99.90;;;;;;4998469;28;20208;-84
2022/01/06 03:24:09;;;;;;;13.03;3.53;;;4.20;99.90;;;;;;4997912;28;20186;-83
2022/01/06 03:26:34;;;;;;;10.83;3.07;;;4.20;99.90;;;;;;4997940;28;20205;-84
2022/01/06 03:29:00;;;;;;;8.40;3.00;;;4.20;99.90;;;;;;4996197;28;20871;-84
2022/01/06 03:31:25;;;;;;;12.27;3.30;;;4.20;99.90;;;;;;4997925;28;20205;-83
2022/01/06 03:33:51;;;;;;;11.73;4.13;;;4.20;99.90;;;;;;5009807;28;20253;-83
2022/01/06 03:36:17;;;;;;;6.27;3.20;;;4.20;99.90;;;;;;4996027;28;20213;-82
2022/01/06 03:38:42;;;;;;;18.57;5.00;;;4.30;99.90;;;;;;4995107;28;20898;-84
2022/01/06 03:41:08;;;;;;;11.53;3.63;;;4.30;99.90;;;;;;4995855;28;20194;-84
2022/01/06 03:43:33;;;;;;;8.57;2.83;;;4.30;99.90;;;;;;4995193;28;20183;-82
2022/01/06 03:45:59;;;;;;;6.63;2.60;;;4.30;99.90;;;;;;4994901;28;20207;-83
2022/01/06 03:48:24;;;;;;;7.70;3.10;;;4.20;99.90;;;;;;4995697;28;20188;-84
2022/01/06 03:50:50;;;;;;;7.07;3.00;;;4.10;99.90;;;;;;4994764;28;20278;-84
2022/01/06 03:53:16;;;;;;;8.53;2.50;;;4.10;99.90;;;;;;4995844;28;20185;-85
2022/01/06 03:55:41;;;;;;;9.70;2.70;;;4.10;99.90;;;;;;4994563;28;20301;-82
2022/01/06 03:58:10;;;;;;;13.23;4.30;;;4.10;99.90;;;;;;4995571;28;20183;-84
2022/01/06 04:00:35;;;;;;;9.10;2.80;;;4.10;99.90;;;;;;4995028;28;20195;-83
2022/01/06 04:03:01;;;;;;;13.10;3.10;;;4.10;99.90;;;;;;4978452;28;20512;-85
2022/01/06 04:05:26;;;;;;;9.43;2.80;;;4.10;99.90;;;;;;4994175;28;20248;-83
2022/01/06 04:07:52;;;;;;;8.40;2.60;;;4.10;99.90;;;;;;4995331;28;20635;-84
2022/01/06 04:10:17;;;;;;;8.20;2.93;;;4.20;99.90;;;;;;4994526;28;20730;-82
2022/01/06 04:12:43;;;;;;;9.60;3.50;;;4.00;99.90;;;;;;4995326;28;20178;-84
2022/01/06 04:15:12;;;;;;;10.73;2.50;;;3.90;99.90;;;;;;4994239;28;20224;-84
2022/01/06 04:17:38;;;;;;;6.63;2.47;;;3.80;99.90;;;;;;4994331;28;20663;-85
2022/01/06 04:20:07;;;;;;;8.43;3.03;;;3.70;99.90;;;;;;4994307;28;20471;-82
2022/01/06 04:22:33;;;;;;;10.40;2.20;;;3.60;99.90;;;;;;4993864;28;20428;-83
2022/01/06 04:25:02;;;;;;;6.30;3.07;;;3.60;99.90;;;;;;4994941;28;20438;-82
2022/01/06 04:27:28;;;;;;;13.83;2.70;;;3.60;99.90;;;;;;4993868;28;20429;-83
2022/01/06 04:29:53;;;;;;;11.10;3.10;;;3.70;99.90;;;;;;4994164;28;20432;-83
2022/01/06 04:32:19;;;;;;;8.23;2.50;;;3.70;99.90;;;;;;4993638;28;20191;-85
2022/01/06 04:34:44;;;;;;;9.53;4.73;;;3.70;99.90;;;;;;4993785;28;20216;-83
2022/01/06 04:37:10;;;;;;;7.83;3.10;;;3.60;99.90;;;;;;4995108;28;20177;-84
2022/01/06 04:39:36;;;;;;;8.57;2.80;;;3.60;99.90;;;;;;4977221;28;20211;-84
2022/01/06 04:42:01;;;;;;;9.67;2.83;;;3.50;99.90;;;;;;4995798;28;20191;-84
2022/01/06 04:44:27;;;;;;;5.80;2.30;;;3.60;99.90;;;;;;4997500;28;20186;-84
2022/01/06 04:46:52;;;;;;;18.33;3.03;;;3.50;99.90;;;;;;4997564;28;20186;-84
2022/01/06 04:49:18;;;;;;;8.07;2.33;;;3.50;99.90;;;;;;4997891;28;20201;-85
2022/01/06 04:51:44;;;;;;;10.93;3.00;;;3.40;99.90;;;;;;4997892;28;20213;-83
2022/01/06 04:54:09;;;;;;;5.07;2.50;;;3.40;99.90;;;;;;4997680;28;20185;-83
2022/01/06 04:56:37;;;;;;;8.67;2.40;;;3.40;99.90;;;;;;4997169;28;20743;-83
2022/01/06 04:59:05;;;;;;;9.00;3.30;;;3.40;99.90;;;;;;4997267;28;20181;-81
2022/01/06 05:01:31;;;;;;;7.50;2.50;;;3.50;99.90;;;;;;4998475;28;20925;-84
2022/01/06 05:03:56;;;;;;;11.00;2.30;;;3.50;99.90;;;;;;4997405;28;20475;-84
2022/01/06 05:06:22;;;;;;;5.10;2.27;;;3.40;99.90;;;;;;4998523;28;20850;-83
2022/01/06 05:08:47;;;;;;;12.03;3.90;;;3.40;99.90;;;;;;4997355;28;20190;-82
2022/01/06 05:11:13;;;;;;;8.10;2.53;;;3.40;99.90;;;;;;4997088;28;20231;-84
2022/01/06 05:13:38;;;;;;;10.17;3.17;;;3.40;99.90;;;;;;4996762;28;20186;-84
2022/01/06 05:16:04;;;;;;;10.53;3.10;;;3.40;99.90;;;;;;4996369;28;20681;-83
2022/01/06 05:18:30;;;;;;;5.60;2.63;;;3.30;99.90;;;;;;4996526;28;20216;-82
2022/01/06 05:20:55;;;;;;;7.77;2.60;;;3.30;99.90;;;;;;4996507;28;20799;-84
2022/01/06 05:23:21;;;;;;;7.07;3.33;;;3.30;99.90;;;;;;4996955;28;20204;-85
2022/01/06 05:25:47;;;;;;;10.30;2.80;;;3.30;99.90;;;;;;4996678;28;20237;-83
2022/01/06 05:28:12;;;;;;;8.87;3.40;;;3.20;99.90;;;;;;4996756;28;20186;-83
2022/01/06 05:30:38;;;;;;;11.30;4.13;;;3.30;99.90;;;;;;4996611;28;20471;-82
2022/01/06 05:33:03;;;;;;;9.80;3.83;;;3.30;99.90;;;;;;4996670;28;20193;-85
2022/01/06 05:35:29;;;;;;;7.93;3.13;;;3.30;99.90;;;;;;4996262;28;20217;-84
2022/01/06 05:37:55;;;;;;;10.63;4.30;;;3.20;99.90;;;;;;4980016;28;20239;-84
2022/01/06 05:40:20;;;;;;;10.17;3.00;;;3.10;99.90;;;;;;4996432;28;20185;-84
2022/01/06 05:42:48;;;;;;;11.20;3.87;;;3.10;99.90;;;;;;4996544;28;20221;-85
2022/01/06 05:45:15;;;;;;;14.33;3.00;;;3.10;99.90;;;;;;4996259;28;20205;-84
2022/01/06 05:47:41;;;;;;;7.30;3.13;;;3.00;99.90;;;;;;4996438;28;20456;-86
2022/01/06 05:50:08;;;;;;;9.97;2.93;;;3.00;99.90;;;;;;4981891;28;20436;-84
2022/01/06 05:52:34;;;;;;;8.20;2.93;;;3.10;99.90;;;;;;4982029;28;20424;-86
2022/01/06 05:55:00;;;;;;;7.27;2.77;;;3.00;99.90;;;;;;4998365;28;20437;-85
2022/01/06 05:57:26;;;;;;;8.00;3.03;;;3.00;99.90;;;;;;4998679;28;20417;-85
2022/01/06 05:59:51;;;;;;;7.37;3.20;;;3.00;99.90;;;;;;4998318;28;20273;-85
2022/01/06 06:02:17;;;;;;;11.53;2.87;;;3.00;99.90;;;;;;4998953;28;20184;-83
2022/01/06 06:04:42;;;;;;;14.63;4.40;;;3.10;99.90;;;;;;4999367;28;20309;-85
2022/01/06 06:07:08;;;;;;;7.13;2.50;;;3.00;99.90;;;;;;4997784;28;20189;-86
2022/01/06 06:09:34;;;;;;;8.67;3.17;;;3.00;99.90;;;;;;4998003;28;20557;-86
2022/01/06 06:11:59;;;;;;;11.77;5.00;;;3.00;99.90;;;;;;4996962;28;20626;-84
2022/01/06 06:14:25;;;;;;;7.50;3.20;;;3.00;99.90;;;;;;4997391;28;20208;-86
2022/01/06 06:16:50;;;;;;;13.13;3.80;;;3.00;99.90;;;;;;4997152;28;20220;-85
2022/01/06 06:19:16;;;;;;;5.60;2.60;;;2.90;99.90;;;;;;4997405;28;20229;-84
2022/01/06 06:21:41;;;;;;;12.93;3.10;;;3.00;99.90;;;;;;4997814;28;20260;-84
2022/01/06 06:24:07;;;;;;;8.83;3.23;;;2.90;99.90;;;;;;4997272;28;20185;-85
2022/01/06 06:26:33;;;;;;;14.70;4.03;;;2.90;99.90;;;;;;4996953;28;20209;-86
2022/01/06 06:28:59;;;;;;;12.10;3.70;;;2.90;99.90;;;;;;4996941;28;20938;-85
2022/01/06 06:31:24;;;;;;;9.23;3.67;;;2.90;99.90;;;;;;4996496;28;20217;-85
2022/01/06 06:33:50;;;;;;;6.67;3.87;;;2.90;99.90;;;;;;4997585;28;20182;-84
2022/01/06 06:36:15;;;;;;;9.93;3.70;;;2.80;99.90;;;;;;4996827;28;20668;-84
2022/01/06 06:38:41;;;;;;;15.73;3.70;;;2.80;99.90;;;;;;4984211;28;20192;-85
2022/01/06 06:41:06;;;;;;;7.20;3.10;;;2.80;99.90;;;;;;4999393;28;20188;-84
2022/01/06 06:43:32;;;;;;;11.60;4.07;;;2.80;99.90;;;;;;4996277;28;20644;-83
2022/01/06 06:45:58;;;;;;;9.50;3.53;;;2.80;99.90;;;;;;4993713;28;20205;-83
2022/01/06 06:48:24;;;;;;;10.63;4.30;;;2.80;99.90;;;;;;4977619;28;20276;-83
2022/01/06 06:50:50;;;;;;;7.97;3.93;;;2.80;99.90;;;;;;4993524;28;20575;-83
2022/01/06 06:53:16;;;;;;;12.03;4.40;;;2.80;99.90;;;;;;4994361;28;20508;-82
2022/01/06 06:55:42;;;;;;;17.03;4.07;;;2.80;99.90;;;;;;4994002;28;20213;-83
2022/01/06 06:58:07;;;;;;;8.83;4.40;;;2.80;99.90;;;;;;4993739;28;20186;-83
2022/01/06 07:00:33;;;;;;;9.80;4.50;;;2.80;99.90;;;;;;4994094;28;20443;-83
2022/01/06 07:02:58;;;;;;;16.93;5.37;;;2.80;99.90;;;;;;4995074;28;20188;-82
2022/01/06 07:05:24;;;;;;;9.47;4.23;;;2.80;99.90;;;;;;4993817;28;20213;-83
2022/01/06 07:07:49;;;;;;;10.10;4.80;;;2.70;99.90;;;;;;4993246;28;20181;-82
2022/01/06 07:10:15;;;;;;;14.87;5.00;;;2.70;99.90;;;;;;4994616;28;20189;-83
2022/01/06 07:12:43;;;;;;;15.83;5.67;;;2.80;99.90;;;;;;4994522;28;20181;-83
2022/01/06 07:15:11;;;;;;;11.77;5.07;;;2.90;99.90;;;;;;4993447;28;20202;-82
2022/01/06 07:17:37;;;;;;;9.30;5.40;;;2.90;99.90;;;;;;4993749;28;20417;-82
2022/01/06 07:20:04;;;;;;;8.63;5.30;;;2.80;99.90;;;;;;4992653;28;20478;-83
2022/01/06 07:22:30;;;;;;;16.30;5.83;;;2.90;99.90;;;;;;5004564;28;20428;-81
2022/01/06 07:24:56;;;;;;;10.03;5.90;;;3.00;99.90;;;;;;5011883;28;20451;-82
2022/01/06 07:27:21;;;;;;;17.03;7.27;;;3.00;99.90;;;;;;5008771;28;20587;-83
2022/01/06 07:29:47;;;;;;;19.63;6.53;;;3.00;99.90;;;;;;4978024;28;20423;-83
2022/01/06 07:32:12;;;;;;;11.40;6.77;;;3.00;99.90;;;;;;5015723;28;20722;-84
2022/01/06 07:34:38;;;;;;;14.23;6.70;;;3.10;99.90;;;;;;4999469;28;20187;-84
2022/01/06 07:37:04;;;;;;;16.27;6.53;;;3.20;99.90;;;;;;5014993;28;20191;-83
2022/01/06 07:39:29;;;;;;;13.43;5.67;;;3.20;99.90;;;;;;4998852;28;20197;-83
2022/01/06 07:41:55;;;;;;;11.90;6.40;;;3.20;99.90;;;;;;4999116;28;20428;-84
2022/01/06 07:44:21;;;;;;;19.00;5.47;;;3.20;99.90;;;;;;4998902;28;20199;-83
2022/01/06 07:46:47;;;;;;;9.27;4.90;;;3.30;99.90;;;;;;5016882;28;20450;-84
2022/01/06 07:49:14;;;;;;;11.80;6.50;;;3.30;99.90;;;;;;5014949;28;20227;-84
2022/01/06 07:51:39;;;;;;;13.77;5.87;;;3.30;99.90;;;;;;4998685;28;20464;-83
2022/01/06 07:54:05;;;;;;;12.20;6.27;;;3.30;99.90;;;;;;4998359;28;20424;-83
2022/01/06 07:56:31;;;;;;;14.87;6.30;;;3.40;99.90;;;;;;4998338;28;20240;-83
2022/01/06 07:58:57;;;;;;;13.07;5.43;;;3.30;99.90;;;;;;4998137;28;20424;-84
2022/01/06 08:01:23;;;;;;;13.13;6.30;;;3.20;99.90;;;;;;5015839;28;20420;-83
2022/01/06 08:03:49;;;;;;;15.53;6.67;;;3.20;99.90;;;;;;4998065;28;20185;-82
2022/01/06 08:06:17;;;;;;;14.80;5.80;;;3.20;99.90;;;;;;4997500;28;20539;-84
2022/01/06 08:08:43;;;;;;;14.90;6.13;;;3.20;99.90;;;;;;5013990;28;20192;-83
2022/01/06 08:11:09;;;;;;;16.33;5.90;;;3.30;99.90;;;;;;5015760;28;20471;-84
2022/01/06 08:13:35;;;;;;;13.77;5.93;;;3.20;99.90;;;;;;4997782;28;21016;-84
2022/01/06 08:16:00;;;;;;;12.20;5.73;;;3.30;99.90;;;;;;4997679;28;20501;-83
2022/01/06 08:18:26;;;;;;;15.20;6.47;;;3.40;99.90;;;;;;4997786;28;20247;-84
2022/01/06 08:20:51;;;;;;;11.20;5.83;;;3.50;99.90;;;;;;4996941;28;20553;-83
2022/01/06 08:23:17;;;;;;;15.63;5.57;;;3.50;99.90;;;;;;5013848;28;20251;-84
2022/01/06 08:25:43;;;;;;;9.57;6.40;;;3.60;99.90;;;;;;5013680;28;20209;-83
2022/01/06 08:28:08;;;;;;;12.70;5.40;;;3.80;99.90;;;;;;5013740;28;20196;-84
2022/01/06 08:30:34;;;;;;;11.50;5.00;;;3.90;99.90;;;;;;5013918;28;20692;-84
2022/01/06 08:33:01;;;;;;;8.50;4.70;;;4.00;99.90;;;;;;4997316;28;20654;-83
2022/01/06 08:35:27;;;;;;;10.87;5.60;;;4.10;99.90;;;;;;4997176;28;20498;-84
2022/01/06 08:37:53;;;;;;;10.60;4.90;;;4.20;99.90;;;;;;5014510;28;20429;-84
2022/01/06 08:40:19;;;;;;;15.33;6.20;;;4.20;99.90;;;;;;5013402;28;20429;-82
2022/01/06 08:42:46;;;;;;;10.53;5.87;;;4.10;99.90;;;;;;4996684;28;20504;-84
2022/01/06 08:45:13;;;;;;;11.90;5.47;;;4.10;99.90;;;;;;5014793;28;20193;-83
2022/01/06 08:47:39;;;;;;;9.83;6.57;;;4.10;99.90;;;;;;4996425;28;20424;-84
2022/01/06 08:50:05;;;;;;;10.80;5.93;;;4.10;99.90;;;;;;4996809;28;20875;-82
2022/01/06 08:52:33;;;;;;;15.17;5.80;;;4.10;99.90;;;;;;5014272;28;20511;-83
2022/01/06 08:54:58;;;;;;;9.17;5.40;;;4.00;99.90;;;;;;5014370;28;20440;-83
2022/01/06 08:57:24;;;;;;;11.30;6.03;;;4.10;99.90;;;;;;4997246;28;20827;-83
2022/01/06 08:59:50;;;;;;;13.53;7.70;;;4.10;99.90;;;;;;4996557;28;20244;-82
2022/01/06 09:02:15;;;;;;;12.03;7.43;;;4.00;99.90;;;;;;5012462;28;20228;-83
2022/01/06 09:04:41;;;;;;;26.70;8.63;;;4.00;99.90;;;;;;4996524;28;20236;-83
2022/01/06 09:07:07;;;;;;;20.37;8.53;;;4.10;99.90;;;;;;4996203;28;20234;-83
2022/01/06 09:09:32;;;;;;;13.13;9.33;;;4.10;99.90;;;;;;4996206;28;20185;-82
2022/01/06 09:11:58;;;;;;;18.83;10.10;;;4.10;99.90;;;;;;5013574;28;20208;-83
2022/01/06 09:14:24;;;;;;;19.17;9.93;;;4.20;99.90;;;;;;4996131;28;20182;-84
2022/01/06 09:16:51;;;;;;;16.37;9.10;;;4.20;99.90;;;;;;5013477;28;20197;-83
2022/01/06 09:19:16;;;;;;;16.57;9.50;;;4.30;99.90;;;;;;4996560;28;20523;-85
2022/01/06 09:21:43;;;;;;;18.47;9.70;;;4.50;99.90;;;;;;5012848;28;20457;-83
2022/01/06 09:24:09;;;;;;;13.67;8.40;;;4.60;99.90;;;;;;4984990;28;20201;-83
2022/01/06 09:26:35;;;;;;;16.07;8.70;;;4.70;99.90;;;;;;4997159;28;20514;-82
2022/01/06 09:29:03;;;;;;;17.97;10.60;;;4.80;99.90;;;;;;5002142;28;20650;-84
2022/01/06 09:31:29;;;;;;;16.20;8.20;;;4.90;99.90;;;;;;5001477;28;20566;-83
2022/01/06 09:33:54;;;;;;;16.53;8.53;;;5.00;99.90;;;;;;5018618;28;20535;-84
2022/01/06 09:36:20;;;;;;;19.07;9.20;;;5.00;99.90;;;;;;5000134;28;20575;-83
2022/01/06 09:38:46;;;;;;;17.83;8.27;;;5.10;99.90;;;;;;5000020;28;20220;-85
2022/01/06 09:41:14;;;;;;;15.27;7.87;;;5.20;99.90;;;;;;5017383;28;20184;-85
2022/01/06 09:43:41;;;;;;;15.97;8.97;;;5.30;99.90;;;;;;5016643;28;20435;-85
2022/01/06 09:46:08;;;;;;;18.10;7.80;;;5.40;99.90;;;;;;4998286;28;20453;-85
2022/01/06 09:48:39;;;;;;;11.87;6.77;;;5.50;99.90;;;;;;4998795;28;20446;-84
2022/01/06 09:51:05;;;;;;;13.87;7.03;;;5.50;99.90;;;;;;4998368;28;20461;-84
2022/01/06 09:53:30;;;;;;;13.30;7.20;;;5.50;99.90;;;;;;4998572;28;20851;-85
2022/01/06 09:55:56;;;;;;;14.50;6.33;;;5.50;99.90;;;;;;5015958;28;20238;-85
2022/01/06 09:58:28;;;;;;;13.40;6.90;;;5.40;99.90;;;;;;5016051;28;20180;-85
2022/01/06 10:00:56;;;;;;;12.70;6.63;;;5.50;99.90;;;;;;5015862;28;20191;-84
2022/01/06 10:03:31;;;;;;;12.23;8.60;;;5.50;99.90;;;;;;5015613;28;20977;-84
2022/01/06 10:06:10;;;;;;;16.63;6.87;;;5.60;99.90;;;;;;4998192;28;20458;-84
2022/01/06 10:08:36;;;;;;;15.83;5.60;;;5.60;99.90;;;;;;5015939;28;20415;-85
2022/01/06 10:11:16;;;;;;;12.50;6.70;;;5.60;99.90;;;;;;4997667;28;20590;-84
2022/01/06 10:13:43;;;;;;;12.50;6.30;;;5.80;99.90;;;;;;5015529;28;20484;-86
2022/01/06 10:16:17;;;;;;;13.47;6.03;;;5.90;99.90;;;;;;4997973;28;20813;-84
2022/01/06 10:19:11;;;;;;;15.40;6.90;;;6.00;99.90;;;;;;4997588;28;20427;-85
2022/01/06 10:21:45;;;;;;;15.53;7.70;;;6.00;99.90;;;;;;4997756;28;20424;-84
2022/01/06 10:24:17;;;;;;;12.60;6.37;;;6.10;99.90;;;;;;4997575;28;20795;-84
2022/01/06 10:27:01;;;;;;;13.20;6.63;;;6.20;99.90;;;;;;4997711;28;21049;-85
2022/01/06 10:29:34;;;;;;;12.33;5.57;;;6.30;99.90;;;;;;4997696;28;20427;-85
2022/01/06 10:32:09;;;;;;;12.83;6.30;;;6.40;99.90;;;;;;5015117;28;21142;-85
2022/01/06 10:34:39;;;;;;;12.47;6.33;;;6.40;99.90;;;;;;4997203;28;20512;-84
2022/01/06 10:37:20;;;;;;;13.63;6.60;;;6.50;99.90;;;;;;4997382;28;20424;-84
2022/01/06 10:39:47;;;;;;;13.23;6.20;;;6.60;99.90;;;;;;5000965;28;20812;-85
2022/01/06 10:42:13;;;;;;;13.57;6.57;;;6.70;99.90;;;;;;5001351;28;20424;-87
2022/01/06 10:44:47;;;;;;;10.87;6.27;;;6.80;99.90;;;;;;5015372;28;20434;-84
2022/01/06 10:47:13;;;;;;;20.67;7.10;;;6.80;99.90;;;;;;4998680;28;20942;-85
2022/01/06 10:49:38;;;;;;;15.50;6.20;;;6.80;99.90;;;;;;5004879;28;20547;-85
2022/01/06 10:52:04;;;;;;;14.73;6.40;;;6.80;99.90;;;;;;5016492;28;20212;-83
2022/01/06 10:54:29;;;;;;;11.33;6.10;;;6.80;99.90;;;;;;5014517;28;20181;-83
2022/01/06 10:57:09;;;;;;;15.40;6.47;;;6.80;99.90;;;;;;5015188;28;20216;-84
2022/01/06 10:59:36;;;;;;;12.70;6.10;;;6.80;99.90;;;;;;5015642;28;20161;-83
2022/01/06 11:02:03;;;;;;;11.27;6.43;;;6.90;99.90;;;;;;4997542;28;20947;-83
2022/01/06 11:04:30;;;;;;;13.43;5.70;;;6.90;99.90;;;;;;4998266;28;20428;-83
2022/01/06 11:06:56;;;;;;;18.73;5.93;;;6.90;99.90;;;;;;5014779;28;20977;-83
2022/01/06 11:09:21;;;;;;;13.10;6.07;;;6.90;99.90;;;;;;4997287;28;20424;-83
2022/01/06 11:14:28;;;;;;;10.57;5.23;;;6.90;99.90;;;;;;5015608;28;20181;-83
2022/01/06 11:16:54;;;;;;;13.07;6.47;;;7.00;99.90;;;;;;4996603;28;20899;-83
2022/01/06 11:19:22;;;;;;;11.53;6.77;;;7.10;99.90;;;;;;4997445;28;20434;-84
2022/01/06 11:21:49;;;;;;;12.07;5.53;;;7.10;99.90;;;;;;4997710;28;20478;-83
2022/01/06 11:24:24;;;;;;;14.60;7.53;;;7.10;99.90;;;;;;4997632;28;20419;-83
2022/01/06 11:27:16;;;;;;;16.50;7.23;;;6.90;99.90;;;;;;5015034;28;20447;-83
2022/01/06 11:29:43;;;;;;;14.20;6.50;;;6.90;99.90;;;;;;5011598;28;20455;-81
2022/01/06 11:32:21;;;;;;;9.77;7.00;;;7.00;99.90;;;;;;4995657;28;20463;-83
2022/01/06 11:34:49;;;;;;;19.83;7.97;;;7.20;99.90;;;;;;4995222;28;20448;-83
2022/01/06 11:37:16;;;;;;;15.40;6.73;;;7.20;99.90;;;;;;5013356;28;20447;-83
2022/01/06 11:39:42;;;;;;;16.67;8.07;;;7.20;99.90;;;;;;5013131;28;20412;-83
2022/01/06 11:42:25;;;;;;;15.77;7.70;;;7.30;99.90;;;;;;4995976;28;20419;-82
2022/01/06 11:44:53;;;;;;;11.37;7.57;;;7.50;99.90;;;;;;5013315;28;20459;-82
2022/01/06 11:47:39;;;;;;;14.83;6.07;;;7.60;99.90;;;;;;5012712;28;20428;-83
2022/01/06 11:50:08;;;;;;;17.60;7.10;;;7.70;99.90;;;;;;4995327;28;20455;-84
2022/01/06 11:52:33;;;;;;;8.87;6.40;;;7.80;99.90;;;;;;5013345;28;20425;-82
2022/01/06 11:55:03;;;;;;;12.33;7.20;;;7.80;99.90;;;;;;4995456;28;20441;-83
2022/01/06 11:57:37;;;;;;;14.43;6.17;;;7.90;99.90;;;;;;5013000;28;20232;-82
2022/01/06 12:00:24;;;;;;;20.87;7.63;;;8.10;99.90;;;;;;4995273;28;20473;-83
2022/01/06 12:03:00;;;;;;;10.97;6.83;;;8.10;99.90;;;;;;4995304;28;20428;-82
2022/01/06 12:05:26;;;;;;;11.97;7.10;;;8.20;99.90;;;;;;4995117;28;20443;-82
2022/01/06 12:07:53;;;;;;;12.30;7.13;;;8.00;99.90;;;;;;5012944;28;20431;-82
2022/01/06 12:10:20;;;;;;;11.73;6.47;;;8.00;99.90;;;;;;4995398;28;20419;-82
2022/01/06 12:12:48;;;;;;;17.70;8.33;;;8.00;99.90;;;;;;4995194;28;20432;-82
2022/01/06 12:15:17;;;;;;;11.30;7.40;;;8.20;99.90;;;;;;4997969;28;20443;-83
2022/01/06 12:17:54;;;;;;;12.80;7.80;;;8.70;99.90;;;;;;4999325;28;20859;-85
2022/01/06 12:20:26;;;;;;;13.63;6.87;;;9.40;99.90;;;;;;5005087;28;20799;-85
2022/01/06 12:22:52;;;;;;;18.57;7.77;;;9.40;99.90;;;;;;5002015;28;20438;-84
2022/01/06 12:25:26;;;;;;;12.97;7.03;;;9.20;99.90;;;;;;5001495;28;20440;-84
2022/01/06 12:27:55;;;;;;;12.07;6.70;;;9.10;99.90;;;;;;4995409;28;20420;-84
2022/01/06 12:30:25;;;;;;;12.80;7.20;;;9.00;99.90;;;;;;4994372;28;20428;-83
2022/01/06 12:33:09;;;;;;;11.83;6.03;;;8.90;99.90;;;;;;4994538;28;20564;-83
2022/01/06 12:35:52;;;;;;;11.00;6.10;;;10.20;99.90;;;;;;5012321;28;20539;-84
2022/01/06 12:38:28;;;;;;;11.80;7.40;;;12.00;99.90;;;;;;4998451;28;20449;-84
2022/01/06 12:40:55;;;;;;;12.13;6.00;;;13.30;99.90;;;;;;4996898;28;20434;-85
2022/01/06 12:43:21;;;;;;;14.17;6.70;;;12.90;99.90;;;;;;5015403;28;20416;-84
2022/01/06 12:46:06;;;;;;;15.80;7.10;;;12.60;99.90;;;;;;5002748;28;20439;-85
2022/01/06 12:48:34;;;;;;;12.70;7.30;;;13.30;99.90;;;;;;5015225;28;20412;-81
2022/01/06 12:51:00;;;;;;;13.63;7.40;;;13.40;99.90;;;;;;4998960;28;20473;-83
2022/01/06 12:53:34;;;;;;;13.67;7.80;;;13.20;99.90;;;;;;4997716;28;20948;-82
2022/01/06 12:56:01;;;;;;;16.17;5.87;;;13.40;99.90;;;;;;5017655;28;20222;-88
2022/01/06 12:58:36;;;;;;;8.50;5.93;;;14.20;99.90;;;;;;5000813;28;20479;-83
2022/01/06 13:01:05;;;;;;;8.67;6.07;;;15.70;99.90;;;;;;4999548;28;20426;-82
2022/01/06 13:03:35;;;;;;;10.50;6.30;;;17.20;99.90;;;;;;5019339;28;20419;-83